Accueil
METAR-TAF:

METAR-TAF

Aéroports :

Boscombe Down, Angleterre

latitude: 51-10N, longitude: 001-45W, altitude: 124 m

Observation

Le bulletin a été fait il y a 57 minutes, à 14:50 UTC
Vent 21 kt de sud-est
Température 5°C
Humidité 93%
Pression 1004 hPa
Visibilité: 8000 m
pluie faible

METAR: EGDM 151450Z AUTO 14021KT 8000 -RA BKN005/// 05/04 Q1004

Heure: 15:47 (15:47 UTC)

Prévision

Le bulletin a été fait il y a 26 heures et 5 minutes, à 13:42 UTC
Prévision valable du 14 à 15 UTC au 14 à 18 UTC
Vent 8 kt de est
Visibilité 10 km ou plus
Nuages fragmentés à une hauteur de 3800 ft

TAF: EGDM 141342Z 1415/1418 09008KT 9999 BKN038

Observations et prévisions météorologiques de plus de 4000 aéroports (messages METAR et TAF).

Les stations disponibles sont représentées par des disques jaunes et rouges sur la carte.

Passer la souris dessus pour voir le nom de la station.

Cliquer dessus pour voir les observations et prévisions météorologiques.

Pour changer de carte: cliquez sur les boutons verts avec une croix noire pour zoomer, sur le bouton vert avec un tiret pour effectuer un zoom arrière, ou sur les flèches vertes pour les cartes adjacentes.


METAR-TAF: